sensor_id;sensor_type;location;lat;lon;timestamp;P1;durP1;ratioP1;P2;durP2;ratioP2
51995;SDS011;38010;53.264;6.592;2023-11-22T00:00:40;2.97;;;2.33;;
51995;SDS011;38010;53.264;6.592;2023-11-22T00:03:06;2.63;;;2.10;;
51995;SDS011;38010;53.264;6.592;2023-11-22T00:05:32;3.75;;;2.50;;
51995;SDS011;38010;53.264;6.592;2023-11-22T00:07:57;2.97;;;2.00;;
51995;SDS011;38010;53.264;6.592;2023-11-22T00:10:23;3.60;;;2.42;;
51995;SDS011;38010;53.264;6.592;2023-11-22T00:12:49;5.10;;;2.65;;
51995;SDS011;38010;53.264;6.592;2023-11-22T00:15:15;4.43;;;2.42;;
51995;SDS011;38010;53.264;6.592;2023-11-22T00:17:46;2.80;;;2.15;;
51995;SDS011;38010;53.264;6.592;2023-11-22T00:20:12;2.97;;;2.25;;
51995;SDS011;38010;53.264;6.592;2023-11-22T00:22:39;3.00;;;1.98;;
51995;SDS011;38010;53.264;6.592;2023-11-22T00:25:05;3.08;;;2.20;;
51995;SDS011;38010;53.264;6.592;2023-11-22T00:27:31;3.28;;;2.20;;
51995;SDS011;38010;53.264;6.592;2023-11-22T00:29:57;3.28;;;2.67;;
51995;SDS011;38010;53.264;6.592;2023-11-22T00:32:24;2.90;;;1.90;;
51995;SDS011;38010;53.264;6.592;2023-11-22T00:34:50;3.00;;;2.08;;
51995;SDS011;38010;53.264;6.592;2023-11-22T00:37:16;3.80;;;2.17;;
51995;SDS011;38010;53.264;6.592;2023-11-22T00:39:42;2.60;;;1.88;;
51995;SDS011;38010;53.264;6.592;2023-11-22T00:42:08;3.60;;;2.55;;
51995;SDS011;38010;53.264;6.592;2023-11-22T00:44:34;3.55;;;2.22;;
51995;SDS011;38010;53.264;6.592;2023-11-22T00:47:01;2.38;;;2.03;;
51995;SDS011;38010;53.264;6.592;2023-11-22T00:49:27;4.15;;;2.28;;
51995;SDS011;38010;53.264;6.592;2023-11-22T00:51:53;3.38;;;2.55;;
51995;SDS011;38010;53.264;6.592;2023-11-22T00:54:19;3.15;;;2.08;;
51995;SDS011;38010;53.264;6.592;2023-11-22T00:56:47;3.05;;;2.03;;
51995;SDS011;38010;53.264;6.592;2023-11-22T00:59:13;3.17;;;2.15;;
51995;SDS011;38010;53.264;6.592;2023-11-22T01:01:39;2.55;;;1.88;;
51995;SDS011;38010;53.264;6.592;2023-11-22T01:04:06;3.42;;;2.50;;
51995;SDS011;38010;53.264;6.592;2023-11-22T01:06:32;4.13;;;2.40;;
51995;SDS011;38010;53.264;6.592;2023-11-22T01:08:58;3.22;;;2.10;;
51995;SDS011;38010;53.264;6.592;2023-11-22T01:11:24;3.80;;;1.90;;
51995;SDS011;38010;53.264;6.592;2023-11-22T01:13:51;3.53;;;2.53;;
51995;SDS011;38010;53.264;6.592;2023-11-22T01:16:16;3.15;;;2.40;;
51995;SDS011;38010;53.264;6.592;2023-11-22T01:18:42;3.75;;;2.45;;
51995;SDS011;38010;53.264;6.592;2023-11-22T01:21:08;3.08;;;2.30;;
51995;SDS011;38010;53.264;6.592;2023-11-22T01:23:34;2.60;;;2.28;;
51995;SDS011;38010;53.264;6.592;2023-11-22T01:26:00;2.90;;;1.88;;
51995;SDS011;38010;53.264;6.592;2023-11-22T01:28:26;3.60;;;2.78;;
51995;SDS011;38010;53.264;6.592;2023-11-22T01:30:55;2.22;;;1.83;;
51995;SDS011;38010;53.264;6.592;2023-11-22T01:33:21;2.75;;;1.85;;
51995;SDS011;38010;53.264;6.592;2023-11-22T01:35:47;3.58;;;2.47;;
51995;SDS011;38010;53.264;6.592;2023-11-22T01:38:15;2.92;;;2.22;;
51995;SDS011;38010;53.264;6.592;2023-11-22T01:40:44;2.30;;;1.75;;
51995;SDS011;38010;53.264;6.592;2023-11-22T01:43:15;3.72;;;2.17;;
51995;SDS011;38010;53.264;6.592;2023-11-22T01:45:44;3.13;;;2.30;;
51995;SDS011;38010;53.264;6.592;2023-11-22T01:48:10;3.53;;;2.03;;
51995;SDS011;38010;53.264;6.592;2023-11-22T01:50:39;2.85;;;2.10;;
51995;SDS011;38010;53.264;6.592;2023-11-22T01:53:07;3.13;;;2.20;;
51995;SDS011;38010;53.264;6.592;2023-11-22T01:55:35;2.55;;;1.70;;
51995;SDS011;38010;53.264;6.592;2023-11-22T01:58:01;2.95;;;2.20;;
51995;SDS011;38010;53.264;6.592;2023-11-22T02:00:30;2.63;;;2.08;;
51995;SDS011;38010;53.264;6.592;2023-11-22T02:03:00;2.80;;;2.20;;
51995;SDS011;38010;53.264;6.592;2023-11-22T02:05:27;3.83;;;2.45;;
51995;SDS011;38010;53.264;6.592;2023-11-22T02:07:52;2.50;;;2.10;;
51995;SDS011;38010;53.264;6.592;2023-11-22T02:10:18;2.80;;;2.20;;
51995;SDS011;38010;53.264;6.592;2023-11-22T02:12:46;3.22;;;2.50;;
51995;SDS011;38010;53.264;6.592;2023-11-22T02:15:11;3.45;;;2.35;;
51995;SDS011;38010;53.264;6.592;2023-11-22T02:17:37;2.00;;;1.70;;
51995;SDS011;38010;53.264;6.592;2023-11-22T02:20:03;3.83;;;2.83;;
51995;SDS011;38010;53.264;6.592;2023-11-22T02:22:33;3.30;;;2.10;;
51995;SDS011;38010;53.264;6.592;2023-11-22T02:25:07;2.85;;;1.90;;
51995;SDS011;38010;53.264;6.592;2023-11-22T02:27:33;2.95;;;2.13;;
51995;SDS011;38010;53.264;6.592;2023-11-22T02:29:58;2.80;;;1.98;;
51995;SDS011;38010;53.264;6.592;2023-11-22T02:32:24;2.97;;;2.10;;
51995;SDS011;38010;53.264;6.592;2023-11-22T02:34:49;2.20;;;1.95;;
51995;SDS011;38010;53.264;6.592;2023-11-22T02:37:16;3.30;;;2.22;;
51995;SDS011;38010;53.264;6.592;2023-11-22T02:39:54;3.88;;;2.33;;
51995;SDS011;38010;53.264;6.592;2023-11-22T02:42:38;2.35;;;1.45;;
51995;SDS011;38010;53.264;6.592;2023-11-22T02:45:04;3.30;;;2.28;;
51995;SDS011;38010;53.264;6.592;2023-11-22T02:47:30;2.05;;;1.65;;
51995;SDS011;38010;53.264;6.592;2023-11-22T02:49:56;3.08;;;2.25;;
51995;SDS011;38010;53.264;6.592;2023-11-22T02:52:22;2.85;;;1.85;;
51995;SDS011;38010;53.264;6.592;2023-11-22T02:54:50;2.47;;;1.80;;
51995;SDS011;38010;53.264;6.592;2023-11-22T02:57:16;3.28;;;1.98;;
51995;SDS011;38010;53.264;6.592;2023-11-22T02:59:44;3.28;;;1.95;;
51995;SDS011;38010;53.264;6.592;2023-11-22T03:02:10;2.10;;;1.75;;
51995;SDS011;38010;53.264;6.592;2023-11-22T03:04:36;2.33;;;1.80;;
51995;SDS011;38010;53.264;6.592;2023-11-22T03:07:03;2.15;;;1.63;;
51995;SDS011;38010;53.264;6.592;2023-11-22T03:09:31;2.65;;;1.85;;
51995;SDS011;38010;53.264;6.592;2023-11-22T03:11:57;2.08;;;1.65;;
51995;SDS011;38010;53.264;6.592;2023-11-22T03:14:23;2.15;;;1.70;;
51995;SDS011;38010;53.264;6.592;2023-11-22T03:16:49;3.13;;;1.90;;
51995;SDS011;38010;53.264;6.592;2023-11-22T03:19:15;4.03;;;1.98;;
51995;SDS011;38010;53.264;6.592;2023-11-22T03:21:40;2.58;;;1.70;;
51995;SDS011;38010;53.264;6.592;2023-11-22T03:24:09;2.55;;;1.85;;
51995;SDS011;38010;53.264;6.592;2023-11-22T03:26:35;2.58;;;1.58;;
51995;SDS011;38010;53.264;6.592;2023-11-22T03:29:00;2.75;;;1.75;;
51995;SDS011;38010;53.264;6.592;2023-11-22T03:31:27;1.92;;;1.58;;
51995;SDS011;38010;53.264;6.592;2023-11-22T03:33:53;2.22;;;1.40;;
51995;SDS011;38010;53.264;6.592;2023-11-22T03:36:20;2.63;;;1.75;;
51995;SDS011;38010;53.264;6.592;2023-11-22T03:38:46;1.83;;;1.30;;
51995;SDS011;38010;53.264;6.592;2023-11-22T03:41:11;1.75;;;1.30;;
51995;SDS011;38010;53.264;6.592;2023-11-22T03:43:37;2.13;;;1.40;;
51995;SDS011;38010;53.264;6.592;2023-11-22T03:46:03;2.17;;;1.58;;
51995;SDS011;38010;53.264;6.592;2023-11-22T03:48:28;2.22;;;1.40;;
51995;SDS011;38010;53.264;6.592;2023-11-22T03:50:54;1.73;;;1.25;;
51995;SDS011;38010;53.264;6.592;2023-11-22T03:53:20;1.58;;;1.20;;
51995;SDS011;38010;53.264;6.592;2023-11-22T03:55:47;1.33;;;1.15;;
51995;SDS011;38010;53.264;6.592;2023-11-22T03:58:13;1.60;;;1.00;;
51995;SDS011;38010;53.264;6.592;2023-11-22T04:00:39;1.70;;;1.10;;
51995;SDS011;38010;53.264;6.592;2023-11-22T04:03:04;1.65;;;1.17;;
51995;SDS011;38010;53.264;6.592;2023-11-22T04:05:30;1.80;;;1.10;;
51995;SDS011;38010;53.264;6.592;2023-11-22T04:07:57;1.88;;;1.10;;
51995;SDS011;38010;53.264;6.592;2023-11-22T04:10:22;1.48;;;1.17;;
51995;SDS011;38010;53.264;6.592;2023-11-22T04:12:48;1.30;;;1.20;;
51995;SDS011;38010;53.264;6.592;2023-11-22T04:15:14;2.13;;;1.50;;
51995;SDS011;38010;53.264;6.592;2023-11-22T04:17:40;1.90;;;1.30;;
51995;SDS011;38010;53.264;6.592;2023-11-22T04:20:06;2.28;;;1.80;;
51995;SDS011;38010;53.264;6.592;2023-11-22T04:25:06;1.88;;;1.45;;
51995;SDS011;38010;53.264;6.592;2023-11-22T04:27:33;1.42;;;1.20;;
51995;SDS011;38010;53.264;6.592;2023-11-22T04:29:59;1.70;;;1.17;;
51995;SDS011;38010;53.264;6.592;2023-11-22T04:32:25;1.83;;;1.30;;
51995;SDS011;38010;53.264;6.592;2023-11-22T04:34:51;1.98;;;1.48;;
51995;SDS011;38010;53.264;6.592;2023-11-22T04:37:17;1.40;;;1.20;;
51995;SDS011;38010;53.264;6.592;2023-11-22T04:39:43;1.50;;;1.20;;
51995;SDS011;38010;53.264;6.592;2023-11-22T04:42:09;1.25;;;1.05;;
51995;SDS011;38010;53.264;6.592;2023-11-22T04:44:34;2.75;;;1.45;;
51995;SDS011;38010;53.264;6.592;2023-11-22T04:47:00;1.85;;;1.20;;
51995;SDS011;38010;53.264;6.592;2023-11-22T04:49:26;2.13;;;1.67;;
51995;SDS011;38010;53.264;6.592;2023-11-22T04:51:52;2.35;;;1.50;;
51995;SDS011;38010;53.264;6.592;2023-11-22T04:54:17;1.65;;;1.52;;
51995;SDS011;38010;53.264;6.592;2023-11-22T04:56:43;2.17;;;1.20;;
51995;SDS011;38010;53.264;6.592;2023-11-22T04:59:09;2.17;;;1.40;;
51995;SDS011;38010;53.264;6.592;2023-11-22T05:01:35;1.73;;;1.30;;
51995;SDS011;38010;53.264;6.592;2023-11-22T05:04:01;2.25;;;1.30;;
51995;SDS011;38010;53.264;6.592;2023-11-22T05:06:27;2.67;;;1.60;;
51995;SDS011;38010;53.264;6.592;2023-11-22T05:08:54;1.90;;;1.48;;
51995;SDS011;38010;53.264;6.592;2023-11-22T05:11:20;1.48;;;1.20;;
51995;SDS011;38010;53.264;6.592;2023-11-22T05:13:46;1.95;;;1.30;;
51995;SDS011;38010;53.264;6.592;2023-11-22T05:16:12;1.40;;;1.27;;
51995;SDS011;38010;53.264;6.592;2023-11-22T05:18:38;1.58;;;1.20;;
51995;SDS011;38010;53.264;6.592;2023-11-22T05:21:04;1.90;;;1.30;;
51995;SDS011;38010;53.264;6.592;2023-11-22T05:23:30;1.63;;;1.17;;
51995;SDS011;38010;53.264;6.592;2023-11-22T05:25:57;2.55;;;1.50;;
51995;SDS011;38010;53.264;6.592;2023-11-22T05:28:25;1.38;;;1.20;;
51995;SDS011;38010;53.264;6.592;2023-11-22T05:30:50;2.08;;;1.30;;
51995;SDS011;38010;53.264;6.592;2023-11-22T05:33:16;2.40;;;1.52;;
51995;SDS011;38010;53.264;6.592;2023-11-22T05:35:42;2.28;;;1.73;;
51995;SDS011;38010;53.264;6.592;2023-11-22T05:38:08;3.47;;;1.42;;
51995;SDS011;38010;53.264;6.592;2023-11-22T05:40:33;1.35;;;1.20;;
51995;SDS011;38010;53.264;6.592;2023-11-22T05:42:59;3.33;;;1.50;;
51995;SDS011;38010;53.264;6.592;2023-11-22T05:45:25;2.50;;;1.60;;
51995;SDS011;38010;53.264;6.592;2023-11-22T05:47:51;2.60;;;1.60;;
51995;SDS011;38010;53.264;6.592;2023-11-22T05:50:17;2.67;;;1.67;;
51995;SDS011;38010;53.264;6.592;2023-11-22T05:52:43;2.75;;;1.90;;
51995;SDS011;38010;53.264;6.592;2023-11-22T05:55:09;2.70;;;1.80;;
51995;SDS011;38010;53.264;6.592;2023-11-22T05:57:35;2.30;;;1.50;;
51995;SDS011;38010;53.264;6.592;2023-11-22T06:00:02;2.67;;;1.95;;
51995;SDS011;38010;53.264;6.592;2023-11-22T06:02:28;3.58;;;1.80;;
51995;SDS011;38010;53.264;6.592;2023-11-22T06:04:53;2.15;;;1.65;;
51995;SDS011;38010;53.264;6.592;2023-11-22T06:07:19;2.05;;;1.73;;
51995;SDS011;38010;53.264;6.592;2023-11-22T06:09:45;3.28;;;1.77;;
51995;SDS011;38010;53.264;6.592;2023-11-22T06:12:10;2.53;;;1.73;;
51995;SDS011;38010;53.264;6.592;2023-11-22T06:14:36;2.50;;;1.98;;
51995;SDS011;38010;53.264;6.592;2023-11-22T06:17:02;3.30;;;2.03;;
51995;SDS011;38010;53.264;6.592;2023-11-22T06:19:28;2.70;;;1.83;;
51995;SDS011;38010;53.264;6.592;2023-11-22T06:21:54;5.25;;;2.45;;
51995;SDS011;38010;53.264;6.592;2023-11-22T06:24:19;3.08;;;2.15;;
51995;SDS011;38010;53.264;6.592;2023-11-22T06:26:45;4.15;;;2.70;;
51995;SDS011;38010;53.264;6.592;2023-11-22T06:29:15;3.67;;;2.40;;
51995;SDS011;38010;53.264;6.592;2023-11-22T06:31:44;4.15;;;2.30;;
51995;SDS011;38010;53.264;6.592;2023-11-22T06:34:09;4.40;;;2.75;;
51995;SDS011;38010;53.264;6.592;2023-11-22T06:36:35;3.45;;;2.42;;
51995;SDS011;38010;53.264;6.592;2023-11-22T06:39:01;4.93;;;3.17;;
51995;SDS011;38010;53.264;6.592;2023-11-22T06:41:26;4.07;;;3.10;;
51995;SDS011;38010;53.264;6.592;2023-11-22T06:43:53;4.22;;;2.92;;
51995;SDS011;38010;53.264;6.592;2023-11-22T06:46:19;6.85;;;3.10;;
51995;SDS011;38010;53.264;6.592;2023-11-22T06:48:45;5.30;;;3.30;;
51995;SDS011;38010;53.264;6.592;2023-11-22T06:51:13;4.93;;;3.63;;
51995;SDS011;38010;53.264;6.592;2023-11-22T06:53:39;7.20;;;3.65;;
51995;SDS011;38010;53.264;6.592;2023-11-22T06:56:06;5.20;;;3.00;;
51995;SDS011;38010;53.264;6.592;2023-11-22T06:58:32;4.95;;;3.03;;
51995;SDS011;38010;53.264;6.592;2023-11-22T07:00:57;5.10;;;3.17;;
51995;SDS011;38010;53.264;6.592;2023-11-22T07:03:23;6.18;;;3.63;;
51995;SDS011;38010;53.264;6.592;2023-11-22T07:05:49;5.60;;;3.30;;
51995;SDS011;38010;53.264;6.592;2023-11-22T07:08:15;5.05;;;3.70;;
51995;SDS011;38010;53.264;6.592;2023-11-22T07:10:44;5.15;;;3.38;;
51995;SDS011;38010;53.264;6.592;2023-11-22T07:13:10;5.43;;;3.70;;
51995;SDS011;38010;53.264;6.592;2023-11-22T07:15:38;4.47;;;3.58;;
51995;SDS011;38010;53.264;6.592;2023-11-22T07:18:04;4.72;;;3.40;;
51995;SDS011;38010;53.264;6.592;2023-11-22T07:20:30;5.13;;;3.53;;
51995;SDS011;38010;53.264;6.592;2023-11-22T07:22:56;5.63;;;3.42;;
51995;SDS011;38010;53.264;6.592;2023-11-22T07:25:23;5.40;;;3.38;;
51995;SDS011;38010;53.264;6.592;2023-11-22T07:27:51;4.72;;;3.20;;
51995;SDS011;38010;53.264;6.592;2023-11-22T07:30:18;6.28;;;3.50;;
51995;SDS011;38010;53.264;6.592;2023-11-22T07:32:45;4.53;;;3.30;;
51995;SDS011;38010;53.264;6.592;2023-11-22T07:35:11;4.85;;;3.67;;
51995;SDS011;38010;53.264;6.592;2023-11-22T07:37:40;6.32;;;4.10;;
51995;SDS011;38010;53.264;6.592;2023-11-22T07:40:08;5.85;;;3.80;;
51995;SDS011;38010;53.264;6.592;2023-11-22T07:42:37;5.60;;;3.50;;
51995;SDS011;38010;53.264;6.592;2023-11-22T07:45:03;4.88;;;3.40;;
51995;SDS011;38010;53.264;6.592;2023-11-22T07:47:30;5.53;;;3.58;;
51995;SDS011;38010;53.264;6.592;2023-11-22T07:49:56;5.88;;;4.03;;
51995;SDS011;38010;53.264;6.592;2023-11-22T07:52:23;7.28;;;4.20;;
51995;SDS011;38010;53.264;6.592;2023-11-22T07:54:57;7.72;;;4.50;;
51995;SDS011;38010;53.264;6.592;2023-11-22T07:57:24;6.00;;;4.32;;
51995;SDS011;38010;53.264;6.592;2023-11-22T07:59:50;6.05;;;4.22;;
51995;SDS011;38010;53.264;6.592;2023-11-22T08:02:20;5.63;;;4.00;;
51995;SDS011;38010;53.264;6.592;2023-11-22T08:04:46;6.28;;;4.22;;
51995;SDS011;38010;53.264;6.592;2023-11-22T08:07:13;6.47;;;4.28;;
51995;SDS011;38010;53.264;6.592;2023-11-22T08:09:40;6.28;;;4.32;;
51995;SDS011;38010;53.264;6.592;2023-11-22T08:12:06;6.15;;;4.50;;
51995;SDS011;38010;53.264;6.592;2023-11-22T08:14:32;4.72;;;3.60;;
51995;SDS011;38010;53.264;6.592;2023-11-22T08:16:58;6.43;;;4.50;;
51995;SDS011;38010;53.264;6.592;2023-11-22T08:19:24;5.35;;;3.97;;
51995;SDS011;38010;53.264;6.592;2023-11-22T08:21:50;7.15;;;4.22;;
51995;SDS011;38010;53.264;6.592;2023-11-22T08:24:16;6.13;;;4.55;;
51995;SDS011;38010;53.264;6.592;2023-11-22T08:26:44;5.68;;;4.20;;
51995;SDS011;38010;53.264;6.592;2023-11-22T08:29:10;5.50;;;4.35;;
51995;SDS011;38010;53.264;6.592;2023-11-22T08:31:36;6.90;;;4.63;;
51995;SDS011;38010;53.264;6.592;2023-11-22T08:34:02;5.85;;;3.92;;
51995;SDS011;38010;53.264;6.592;2023-11-22T08:36:32;5.68;;;4.40;;
51995;SDS011;38010;53.264;6.592;2023-11-22T08:38:59;7.18;;;4.82;;
51995;SDS011;38010;53.264;6.592;2023-11-22T08:41:26;5.32;;;4.03;;
51995;SDS011;38010;53.264;6.592;2023-11-22T08:43:55;7.05;;;4.70;;
51995;SDS011;38010;53.264;6.592;2023-11-22T08:46:22;5.65;;;4.00;;
51995;SDS011;38010;53.264;6.592;2023-11-22T08:48:48;7.03;;;4.82;;
51995;SDS011;38010;53.264;6.592;2023-11-22T08:51:17;6.88;;;4.88;;
51995;SDS011;38010;53.264;6.592;2023-11-22T08:53:44;5.72;;;4.45;;
51995;SDS011;38010;53.264;6.592;2023-11-22T08:56:10;6.22;;;4.18;;
51995;SDS011;38010;53.264;6.592;2023-11-22T08:58:37;5.45;;;4.07;;
51995;SDS011;38010;53.264;6.592;2023-11-22T09:01:04;6.10;;;4.07;;
51995;SDS011;38010;53.264;6.592;2023-11-22T09:03:30;6.68;;;4.15;;
51995;SDS011;38010;53.264;6.592;2023-11-22T09:05:57;6.75;;;4.43;;
51995;SDS011;38010;53.264;6.592;2023-11-22T09:08:23;6.93;;;4.40;;
51995;SDS011;38010;53.264;6.592;2023-11-22T09:10:49;5.85;;;4.13;;
51995;SDS011;38010;53.264;6.592;2023-11-22T09:13:16;6.95;;;4.28;;
51995;SDS011;38010;53.264;6.592;2023-11-22T09:15:42;7.57;;;4.93;;
51995;SDS011;38010;53.264;6.592;2023-11-22T09:18:09;5.85;;;4.18;;
51995;SDS011;38010;53.264;6.592;2023-11-22T09:20:37;6.78;;;3.90;;
51995;SDS011;38010;53.264;6.592;2023-11-22T09:23:04;5.00;;;3.72;;
51995;SDS011;38010;53.264;6.592;2023-11-22T09:25:30;6.55;;;4.03;;
51995;SDS011;38010;53.264;6.592;2023-11-22T09:27:56;5.40;;;3.78;;
51995;SDS011;38010;53.264;6.592;2023-11-22T09:30:26;6.07;;;4.45;;
51995;SDS011;38010;53.264;6.592;2023-11-22T09:33:14;5.82;;;3.65;;
51995;SDS011;38010;53.264;6.592;2023-11-22T09:35:41;5.78;;;4.03;;
51995;SDS011;38010;53.264;6.592;2023-11-22T09:38:09;6.30;;;4.15;;
51995;SDS011;38010;53.264;6.592;2023-11-22T09:40:43;6.80;;;4.20;;
51995;SDS011;38010;53.264;6.592;2023-11-22T09:43:13;5.88;;;3.95;;
51995;SDS011;38010;53.264;6.592;2023-11-22T09:45:43;6.13;;;3.55;;
51995;SDS011;38010;53.264;6.592;2023-11-22T09:48:16;4.97;;;3.65;;
51995;SDS011;38010;53.264;6.592;2023-11-22T09:50:50;5.78;;;4.10;;
51995;SDS011;38010;53.264;6.592;2023-11-22T09:53:33;7.75;;;4.00;;
51995;SDS011;38010;53.264;6.592;2023-11-22T09:56:19;5.68;;;3.65;;
51995;SDS011;38010;53.264;6.592;2023-11-22T09:58:45;6.00;;;4.15;;
51995;SDS011;38010;53.264;6.592;2023-11-22T10:01:13;4.55;;;3.67;;
51995;SDS011;38010;53.264;6.592;2023-11-22T10:03:41;5.65;;;3.55;;
51995;SDS011;38010;53.264;6.592;2023-11-22T10:06:07;5.18;;;3.63;;
51995;SDS011;38010;53.264;6.592;2023-11-22T10:08:33;5.78;;;3.97;;
51995;SDS011;38010;53.264;6.592;2023-11-22T10:10:59;6.38;;;4.07;;
51995;SDS011;38010;53.264;6.592;2023-11-22T10:13:25;5.78;;;4.05;;
51995;SDS011;38010;53.264;6.592;2023-11-22T10:15:51;6.63;;;4.30;;
51995;SDS011;38010;53.264;6.592;2023-11-22T10:18:18;5.03;;;3.47;;
51995;SDS011;38010;53.264;6.592;2023-11-22T10:20:45;5.47;;;3.70;;
51995;SDS011;38010;53.264;6.592;2023-11-22T10:23:15;4.38;;;3.22;;
51995;SDS011;38010;53.264;6.592;2023-11-22T10:25:45;5.75;;;4.00;;
51995;SDS011;38010;53.264;6.592;2023-11-22T10:28:15;6.20;;;4.15;;
51995;SDS011;38010;53.264;6.592;2023-11-22T10:30:43;5.05;;;3.70;;
51995;SDS011;38010;53.264;6.592;2023-11-22T10:33:10;5.05;;;3.55;;
51995;SDS011;38010;53.264;6.592;2023-11-22T10:35:45;5.85;;;4.20;;
51995;SDS011;38010;53.264;6.592;2023-11-22T10:38:16;5.45;;;3.53;;
51995;SDS011;38010;53.264;6.592;2023-11-22T10:40:43;6.07;;;3.38;;
51995;SDS011;38010;53.264;6.592;2023-11-22T10:43:19;5.20;;;3.78;;
51995;SDS011;38010;53.264;6.592;2023-11-22T10:45:47;4.88;;;3.20;;
51995;SDS011;38010;53.264;6.592;2023-11-22T10:48:18;5.30;;;3.30;;
51995;SDS011;38010;53.264;6.592;2023-11-22T10:50:46;4.75;;;3.58;;
51995;SDS011;38010;53.264;6.592;2023-11-22T10:53:16;4.60;;;3.50;;
51995;SDS011;38010;53.264;6.592;2023-11-22T10:55:47;4.32;;;2.95;;
51995;SDS011;38010;53.264;6.592;2023-11-22T10:58:14;5.55;;;3.72;;
51995;SDS011;38010;53.264;6.592;2023-11-22T11:00:41;5.10;;;3.50;;
51995;SDS011;38010;53.264;6.592;2023-11-22T11:03:11;4.40;;;3.22;;
51995;SDS011;38010;53.264;6.592;2023-11-22T11:05:41;3.97;;;2.70;;
51995;SDS011;38010;53.264;6.592;2023-11-22T11:08:17;5.05;;;3.40;;
51995;SDS011;38010;53.264;6.592;2023-11-22T11:10:45;4.03;;;3.10;;
51995;SDS011;38010;53.264;6.592;2023-11-22T11:13:12;4.78;;;3.47;;
51995;SDS011;38010;53.264;6.592;2023-11-22T11:15:39;4.72;;;3.28;;
51995;SDS011;38010;53.264;6.592;2023-11-22T11:18:09;6.18;;;3.20;;
51995;SDS011;38010;53.264;6.592;2023-11-22T11:20:51;5.25;;;3.40;;
51995;SDS011;38010;53.264;6.592;2023-11-22T11:23:21;4.60;;;3.42;;
51995;SDS011;38010;53.264;6.592;2023-11-22T11:25:50;4.22;;;3.00;;
51995;SDS011;38010;53.264;6.592;2023-11-22T11:30:55;3.55;;;2.65;;
51995;SDS011;38010;53.264;6.592;2023-11-22T11:35:50;5.28;;;3.00;;
51995;SDS011;38010;53.264;6.592;2023-11-22T11:38:19;4.00;;;2.75;;
51995;SDS011;38010;53.264;6.592;2023-11-22T11:40:46;3.78;;;3.10;;
51995;SDS011;38010;53.264;6.592;2023-11-22T11:43:13;4.30;;;3.10;;
51995;SDS011;38010;53.264;6.592;2023-11-22T11:45:40;4.70;;;2.53;;
51995;SDS011;38010;53.264;6.592;2023-11-22T11:48:15;4.18;;;2.70;;
51995;SDS011;38010;53.264;6.592;2023-11-22T11:50:42;4.30;;;3.08;;
51995;SDS011;38010;53.264;6.592;2023-11-22T11:53:11;4.47;;;3.20;;
51995;SDS011;38010;53.264;6.592;2023-11-22T11:55:37;4.45;;;2.58;;
51995;SDS011;38010;53.264;6.592;2023-11-22T11:58:06;3.85;;;2.90;;
51995;SDS011;38010;53.264;6.592;2023-11-22T12:00:34;2.97;;;2.20;;
51995;SDS011;38010;53.264;6.592;2023-11-22T12:03:05;3.97;;;2.83;;
51995;SDS011;38010;53.264;6.592;2023-11-22T12:05:37;3.28;;;2.10;;
51995;SDS011;38010;53.264;6.592;2023-11-22T12:08:04;6.18;;;2.67;;
51995;SDS011;38010;53.264;6.592;2023-11-22T12:10:30;4.45;;;2.63;;
51995;SDS011;38010;53.264;6.592;2023-11-22T12:12:56;3.70;;;2.50;;
51995;SDS011;38010;53.264;6.592;2023-11-22T12:15:23;3.75;;;2.75;;
51995;SDS011;38010;53.264;6.592;2023-11-22T12:17:50;4.15;;;2.72;;
51995;SDS011;38010;53.264;6.592;2023-11-22T12:20:17;4.03;;;2.60;;
51995;SDS011;38010;53.264;6.592;2023-11-22T12:22:46;2.92;;;2.17;;
51995;SDS011;38010;53.264;6.592;2023-11-22T12:25:13;3.97;;;2.30;;
51995;SDS011;38010;53.264;6.592;2023-11-22T12:27:39;3.35;;;2.65;;
51995;SDS011;38010;53.264;6.592;2023-11-22T12:30:27;3.42;;;2.45;;
51995;SDS011;38010;53.264;6.592;2023-11-22T12:32:54;3.55;;;2.53;;
51995;SDS011;38010;53.264;6.592;2023-11-22T12:35:22;4.15;;;2.40;;
51995;SDS011;38010;53.264;6.592;2023-11-22T12:37:48;4.22;;;2.63;;
51995;SDS011;38010;53.264;6.592;2023-11-22T12:40:14;4.13;;;2.25;;
51995;SDS011;38010;53.264;6.592;2023-11-22T12:42:52;3.90;;;2.60;;
51995;SDS011;38010;53.264;6.592;2023-11-22T12:45:21;3.35;;;2.30;;
51995;SDS011;38010;53.264;6.592;2023-11-22T12:47:52;3.28;;;2.10;;
51995;SDS011;38010;53.264;6.592;2023-11-22T12:50:37;4.47;;;2.35;;
51995;SDS011;38010;53.264;6.592;2023-11-22T12:53:13;4.03;;;2.65;;
51995;SDS011;38010;53.264;6.592;2023-11-22T12:55:46;2.83;;;2.15;;
51995;SDS011;38010;53.264;6.592;2023-11-22T12:58:14;3.72;;;2.05;;
51995;SDS011;38010;53.264;6.592;2023-11-22T13:00:41;3.15;;;2.13;;
51995;SDS011;38010;53.264;6.592;2023-11-22T13:03:08;3.38;;;2.55;;
51995;SDS011;38010;53.264;6.592;2023-11-22T13:05:44;4.22;;;2.00;;
51995;SDS011;38010;53.264;6.592;2023-11-22T13:08:11;3.28;;;2.58;;
51995;SDS011;38010;53.264;6.592;2023-11-22T13:10:44;3.78;;;2.72;;
51995;SDS011;38010;53.264;6.592;2023-11-22T13:13:29;2.95;;;2.08;;
51995;SDS011;38010;53.264;6.592;2023-11-22T13:15:55;2.85;;;1.92;;
51995;SDS011;38010;53.264;6.592;2023-11-22T13:18:22;3.40;;;1.85;;
51995;SDS011;38010;53.264;6.592;2023-11-22T13:20:48;2.63;;;2.15;;
51995;SDS011;38010;53.264;6.592;2023-11-22T13:23:15;6.78;;;3.28;;
51995;SDS011;38010;53.264;6.592;2023-11-22T13:25:41;3.45;;;2.28;;
51995;SDS011;38010;53.264;6.592;2023-11-22T13:28:07;3.72;;;2.08;;
51995;SDS011;38010;53.264;6.592;2023-11-22T13:30:33;3.00;;;1.90;;
51995;SDS011;38010;53.264;6.592;2023-11-22T13:33:00;3.28;;;2.17;;
51995;SDS011;38010;53.264;6.592;2023-11-22T13:35:28;4.65;;;3.20;;
51995;SDS011;38010;53.264;6.592;2023-11-22T13:37:56;3.95;;;2.55;;
51995;SDS011;38010;53.264;6.592;2023-11-22T13:40:24;2.95;;;2.13;;
51995;SDS011;38010;53.264;6.592;2023-11-22T13:42:51;3.05;;;2.30;;
51995;SDS011;38010;53.264;6.592;2023-11-22T13:45:19;3.75;;;2.40;;
51995;SDS011;38010;53.264;6.592;2023-11-22T13:47:53;2.53;;;2.03;;
51995;SDS011;38010;53.264;6.592;2023-11-22T13:50:25;2.78;;;2.33;;
51995;SDS011;38010;53.264;6.592;2023-11-22T13:52:55;3.35;;;2.47;;
51995;SDS011;38010;53.264;6.592;2023-11-22T13:55:22;2.50;;;1.90;;
51995;SDS011;38010;53.264;6.592;2023-11-22T13:57:51;2.42;;;2.00;;
51995;SDS011;38010;53.264;6.592;2023-11-22T14:00:18;2.80;;;2.03;;
51995;SDS011;38010;53.264;6.592;2023-11-22T14:02:48;2.83;;;2.10;;
51995;SDS011;38010;53.264;6.592;2023-11-22T14:05:18;2.55;;;1.98;;
51995;SDS011;38010;53.264;6.592;2023-11-22T14:07:44;4.07;;;2.15;;
51995;SDS011;38010;53.264;6.592;2023-11-22T14:10:10;2.25;;;1.80;;
51995;SDS011;38010;53.264;6.592;2023-11-22T14:12:36;3.15;;;2.17;;
51995;SDS011;38010;53.264;6.592;2023-11-22T14:15:02;3.22;;;2.55;;
51995;SDS011;38010;53.264;6.592;2023-11-22T14:17:30;4.20;;;2.35;;
51995;SDS011;38010;53.264;6.592;2023-11-22T14:19:56;3.00;;;2.25;;
51995;SDS011;38010;53.264;6.592;2023-11-22T14:22:22;3.28;;;2.10;;
51995;SDS011;38010;53.264;6.592;2023-11-22T14:24:48;2.47;;;2.15;;
51995;SDS011;38010;53.264;6.592;2023-11-22T14:27:15;3.97;;;2.72;;
51995;SDS011;38010;53.264;6.592;2023-11-22T14:29:47;3.08;;;2.42;;
51995;SDS011;38010;53.264;6.592;2023-11-22T14:32:15;3.33;;;2.00;;
51995;SDS011;38010;53.264;6.592;2023-11-22T14:34:41;3.28;;;2.40;;
51995;SDS011;38010;53.264;6.592;2023-11-22T14:37:11;4.55;;;2.67;;
51995;SDS011;38010;53.264;6.592;2023-11-22T14:39:37;3.65;;;2.38;;
51995;SDS011;38010;53.264;6.592;2023-11-22T14:42:04;2.88;;;2.30;;
51995;SDS011;38010;53.264;6.592;2023-11-22T14:44:35;3.35;;;2.58;;
51995;SDS011;38010;53.264;6.592;2023-11-22T14:47:02;4.57;;;2.58;;
51995;SDS011;38010;53.264;6.592;2023-11-22T14:49:37;3.55;;;2.42;;
51995;SDS011;38010;53.264;6.592;2023-11-22T14:52:04;3.40;;;2.25;;
51995;SDS011;38010;53.264;6.592;2023-11-22T14:54:30;3.50;;;2.70;;
51995;SDS011;38010;53.264;6.592;2023-11-22T14:56:55;3.25;;;2.58;;